Terminal Aerodrome Forecast
Issued by NWS Twin Cities, MN

Home | Current Version | Previous Version | Graphics & Text | Print | Product List | Glossary On
Versions: 1 2 3 4 5 6 7 8 9 10 11 12 13 14 15 16 17 18 19 20 21 22 23 24 25 26
197
FTUS43 KMPX 210319 AAA
TAFMSP
TAF AMD
KMSP 210319Z 2103/2206 VRB02KT P6SM OVC100
     FM212000 02006KT P6SM OVC050
     FM220000 03006KT P6SM OVC030
     FM220200 03006KT P6SM OVC015
     FM220500 03008KT P6SM OVC008=

USA.gov is the U.S. government's official web portal to all federal, state and local government web resources and services.